This is the latest recevied weather packets stored in our database for station/object N5RPG. If no packets are shown the sender has not sent any weather packets the latest 10 day(s).
| Time | Temp. | Humidity | Pressure | Rain* | Wind** | Luminosity | Snow |
|---|---|---|---|---|---|---|---|
| 1777674358 | 15° C | 81% | 1015.7 hPa | 0 mm | - | 91 W/m² | - |
| 1777674044 | 15° C | 80% | 1015.6 hPa | 0 mm | - | 106 W/m² | - |
| 1777673740 | 15° C | 79% | 1015.4 hPa | 0 mm | - | 114 W/m² | - |
| 1777673438 | 15.56° C | 79% | 1015.3 hPa | 0 mm | - | 127 W/m² | - |
| 1777673136 | 15.56° C | 78% | 1015.2 hPa | 0 mm | - | 203 W/m² | - |
| 1777672832 | 15.56° C | 80% | 1015 hPa | 0 mm | - | 187 W/m² | - |
| 1777672528 | 15.56° C | 78% | 1015.1 hPa | 0 mm | - | 79 W/m² | - |
| 1777672224 | 15.56° C | 80% | 1015 hPa | 0 mm | - | 309 W/m² | - |
| 1777671919 | 15° C | 82% | 1015 hPa | 0 mm | - | 350 W/m² | - |
| 1777671615 | 15° C | 82% | 1015.4 hPa | 0 mm | - | 318 W/m² | - |
| 1777671312 | 15° C | 83% | 1015.5 hPa | 0 mm | - | 302 W/m² | - |
| 1777671009 | 15° C | 82% | 1015.8 hPa | 0 mm | - | 195 W/m² | - |
| 1777670704 | 15° C | 82% | 1016.1 hPa | 0 mm | - | 136 W/m² | - |
| 1777670402 | 14.44° C | 80% | 1016.2 hPa | 0 mm | - | 113 W/m² | - |
| 1777670099 | 15° C | 82% | 1016.3 hPa | 0 mm | - | 93 W/m² | - |
| 1777669796 | 15° C | 82% | 1016.4 hPa | 0 mm | - | 109 W/m² | - |
| 1777669492 | 15° C | 82% | 1016.3 hPa | 0 mm | - | 107 W/m² | - |
| 1777669189 | 15° C | 82% | 1016.2 hPa | 0 mm | - | 145 W/m² | - |
| 1777668886 | 15° C | 83% | 1016.2 hPa | 0 mm | - | 139 W/m² | - |
| 1777668583 | 15° C | 81% | 1015.8 hPa | 0 mm | - | 147 W/m² | - |
| 1777668279 | 15° C | 80% | 1015.6 hPa | 0 mm | - | 140 W/m² | - |
| 1777667975 | 15° C | 79% | 1015.4 hPa | 0 mm | - | 172 W/m² | - |
| 1777667673 | 15° C | 80% | 1015.3 hPa | 0 mm | - | 238 W/m² | - |
| 1777667370 | 15° C | 80% | 1015 hPa | 0 mm | - | 410 W/m² | - |
| 1777667067 | 15° C | 82% | 1014.6 hPa | 0 mm | - | 499 W/m² | - |
* Rain latest hour (hover to see other rain measurements)
** Current wind speed in m/s (hover to see current wind gust speed)